METAR Data
IDs: Format: Raw Decoded Include TAF

Data at: 1440 UTC 11 Dec 2018

KUTS 111353Z AUTO 18004KT 10SM CLR 02/01 A3041 RMK AO2 SLP300 T00220006
KUTS 111253Z AUTO 18003KT 10SM CLR 01/M01 A3040 RMK AO2 SLP295 T00061006
KUTS 111153Z AUTO 00000KT 10SM CLR 01/M01 A3040 RMK AO2 SLP296 T00061006 10017 21006 53005
KUTS 111053Z AUTO 20003KT 10SM CLR 00/M01 A3038 RMK AO2 SLP289 T00001006
KUTS 110953Z AUTO 00000KT 10SM CLR 00/M01 A3038 RMK AO2 SLP289 T00001006
KUTS 110853Z AUTO 00000KT 10SM CLR 01/00 A3039 RMK AO2 SLP291 T00060000 58002
KUTS 110753Z AUTO 00000KT 10SM CLR 01/00 A3040 RMK AO2 SLP294 T00060000
KUTS 110653Z AUTO 20004KT 10SM CLR 01/00 A3039 RMK AO2 SLP293 T00110000
KUTS 110553Z AUTO 00000KT 10SM CLR 01/01 A3040 RMK AO2 SLP293 T00110006 10078 20011 401280006 50002
KUTS 110453Z AUTO 21003KT 10SM CLR 02/01 A3040 RMK AO2 SLP295 T00170006
KUTS 110353Z AUTO 21003KT 10SM CLR 03/01 A3039 RMK AO2 SLP292 T00280011
KUTS 110253Z AUTO 00000KT 10SM CLR 03/02 A3039 RMK AO2 SLP292 T00330017 50007
KUTS 110153Z AUTO 21003KT 10SM CLR 04/02 A3039 RMK AO2 SLP293 T00390017
KUTS 110053Z AUTO 00000KT 10SM CLR 06/02 A3038 RMK AO2 SLP290 T00560022
KUTS 102353Z AUTO 00000KT 10SM CLR 07/02 A3037 RMK AO2 SLP284 T00720022 10128 20072 53009
KUTS 102253Z AUTO 00000KT 10SM CLR 12/00 A3036 RMK AO2 SLP280 T01170000
KUTS 102153Z AUTO 28005KT 10SM CLR 12/M01 A3035 RMK AO2 SLP277 T01221006
KUTS 102053Z AUTO VRB03KT 10SM CLR 13/M01 A3034 RMK AO2 SLP274 T01281011 56015
KUTS 101953Z AUTO 34004KT 10SM CLR 12/00 A3035 RMK AO2 SLP277 T01220000
KUTS 101853Z AUTO 33006KT 10SM CLR 11/M01 A3037 RMK AO2 SLP283 T01111011
KUTS 101753Z AUTO VRB04KT 10SM CLR 11/M01 A3039 RMK AO2 SLP289 T01061011 10106 20006 58006
KUTS 101653Z AUTO VRB05KT 10SM CLR 09/M01 A3041 RMK AO2 SLP297 T00891006
KUTS 101553Z AUTO 35005KT 10SM CLR 07/01 A3041 RMK AO2 SLP298 T00670011
KUTS 101453Z AUTO 34005KT 10SM CLR 04/01 A3041 RMK AO2 SLP297 T00390011 53019
KUTS 101353Z AUTO 32004KT 8SM CLR 02/01 A3038 RMK AO2 SLP290 T00170006
KUTS 101253Z AUTO 30003KT 9SM CLR 01/00 A3037 RMK AO2 SLP283 T00110000
KUTS 101153Z AUTO 00000KT 8SM CLR 02/01 A3035 RMK AO2 SLP277 T00170006 10039 20011 53004
KUTS 101053Z AUTO 32003KT 9SM CLR 02/01 A3034 RMK AO2 SLP273 T00170006
KUTS 100953Z AUTO 32003KT 9SM CLR 02/01 A3034 RMK AO2 SLP274 T00220011
KUTS 100853Z AUTO 00000KT 9SM CLR 02/01 A3034 RMK AO2 SLP273 T00220011 56004
KUTS 100753Z AUTO 00000KT 9SM CLR 03/02 A3034 RMK AO2 SLP274 T00280022
KUTS 100653Z AUTO 32003KT 10SM CLR 03/02 A3034 RMK AO2 SLP275 T00330022
KUTS 100553Z AUTO 00000KT 9SM CLR 04/03 A3035 RMK AO2 SLP278 T00390028 10072 20039 400720039 51006
KUTS 100453Z AUTO 30003KT 9SM CLR 04/03 A3035 RMK AO2 SLP277 T00440033
KUTS 100353Z AUTO 30005KT 10SM CLR 05/03 A3034 RMK AO2 SLP275 T00500033
KUTS 100253Z AUTO 29004KT 9SM CLR 05/03 A3033 RMK AO2 SLP272 T00500033 51013